Time;durP1;ratioP1;P1;durP2;ratioP2;P2;SDS_P1;SDS_P2;PMS_P1;PMS_P2;Temp;Humidity;BMP_temperature;BMP_pressure;BME280_temperature;BME280_humidity;BME280_pressure;Samples;Min_cycle;Max_cycle;Signal;HPM_P1;HPM_P2
2022/03/11 00:00:39;;;;;;;2.38;2.17;;;0.70;59.80;;;;;;5093396;28;20547;-71
2022/03/11 00:03:06;;;;;;;2.55;2.35;;;0.70;60.20;;;;;;5093479;28;20314;-70
2022/03/11 00:05:33;;;;;;;2.13;1.98;;;0.70;60.70;;;;;;5093740;28;20296;-71
2022/03/11 00:08:00;;;;;;;2.70;2.47;;;0.70;60.70;;;;;;5093657;28;20199;-71
2022/03/11 00:10:27;;;;;;;2.15;2.05;;;0.70;60.80;;;;;;5093568;28;20206;-72
2022/03/11 00:12:53;;;;;;;1.88;1.77;;;0.70;61.60;;;;;;5093454;28;20223;-71
2022/03/11 00:15:20;;;;;;;2.10;2.00;;;0.60;62.60;;;;;;5093255;28;20229;-71
2022/03/11 00:17:49;;;;;;;2.10;1.90;;;0.60;62.80;;;;;;5093310;28;20199;-71
2022/03/11 00:20:19;;;;;;;1.90;1.80;;;0.60;63.50;;;;;;5093364;28;20290;-72
2022/03/11 00:22:46;;;;;;;1.58;1.58;;;0.60;64.00;;;;;;5094004;28;20226;-69
2022/03/11 00:25:13;;;;;;;2.03;1.92;;;0.60;64.00;;;;;;5097508;28;20226;-72
2022/03/11 00:27:40;;;;;;;1.95;1.85;;;0.60;64.30;;;;;;5098018;28;20195;-70
2022/03/11 00:30:07;;;;;;;2.00;1.90;;;0.60;65.50;;;;;;5098586;28;20294;-71
2022/03/11 00:32:34;;;;;;;2.33;2.22;;;0.50;65.80;;;;;;5097876;28;20223;-71
2022/03/11 00:35:03;;;;;;;2.28;2.17;;;0.50;67.40;;;;;;5098945;28;20290;-71
2022/03/11 00:37:29;;;;;;;2.00;1.90;;;0.40;68.90;;;;;;5097516;28;20202;-71
2022/03/11 00:39:56;;;;;;;1.45;1.45;;;0.40;68.10;;;;;;5097369;28;20290;-71
2022/03/11 00:42:23;;;;;;;2.30;2.20;;;0.40;67.70;;;;;;5097321;28;20655;-71
2022/03/11 00:44:50;;;;;;;2.15;2.05;;;0.40;67.30;;;;;;5097168;28;20211;-71
2022/03/11 00:47:17;;;;;;;2.45;2.25;;;0.30;68.50;;;;;;5096916;28;20678;-71
2022/03/11 00:49:44;;;;;;;1.88;1.77;;;0.30;68.30;;;;;;5096995;28;20286;-72
2022/03/11 00:52:12;;;;;;;1.83;1.73;;;0.30;69.10;;;;;;5096735;28;20305;-72
2022/03/11 00:54:39;;;;;;;2.00;1.70;;;0.30;69.60;;;;;;5097113;28;20196;-71
2022/03/11 00:57:06;;;;;;;1.90;1.80;;;0.20;70.20;;;;;;5097080;28;20294;-71
2022/03/11 00:59:33;;;;;;;1.58;1.55;;;0.20;70.70;;;;;;5096695;28;20697;-71
2022/03/11 01:02:00;;;;;;;1.75;1.65;;;0.20;70.70;;;;;;5096652;28;20788;-72
2022/03/11 01:04:27;;;;;;;1.83;1.73;;;0.20;71.50;;;;;;5096890;28;20254;-71
2022/03/11 01:06:54;;;;;;;1.77;1.67;;;0.10;72.30;;;;;;5096754;28;20281;-71
2022/03/11 01:09:22;;;;;;;1.88;1.77;;;0.10;73.10;;;;;;5096821;28;20256;-72
2022/03/11 01:11:49;;;;;;;1.88;1.77;;;0.10;73.00;;;;;;5096775;28;20254;-71
2022/03/11 01:14:16;;;;;;;2.00;1.90;;;0.10;72.30;;;;;;5098175;28;20231;-71
2022/03/11 01:16:42;;;;;;;2.13;2.03;;;0.10;73.50;;;;;;5102897;28;20196;-71
2022/03/11 01:19:09;;;;;;;2.63;2.20;;;0.00;74.50;;;;;;5104796;28;20270;-71
2022/03/11 01:21:36;;;;;;;2.00;1.90;;;0.00;75.10;;;;;;5106721;28;20241;-71
2022/03/11 01:24:03;;;;;;;2.10;2.00;;;0.00;75.90;;;;;;5105814;28;20287;-71
2022/03/11 01:26:31;;;;;;;1.80;1.80;;;0.00;75.20;;;;;;5100860;28;20282;-70
2022/03/11 01:28:58;;;;;;;2.70;2.50;;;0.00;75.10;;;;;;5097530;28;20205;-70
2022/03/11 01:31:25;;;;;;;2.75;2.55;;;0.00;75.60;;;;;;5096585;28;20302;-71
2022/03/11 01:33:52;;;;;;;2.35;2.25;;;-0.10;76.90;;;;;;5095789;28;20821;-71
2022/03/11 01:36:20;;;;;;;2.42;2.22;;;-0.10;77.50;;;;;;5096304;28;20294;-71
2022/03/11 01:38:48;;;;;;;3.28;2.20;;;-0.10;79.30;;;;;;5096650;28;20202;-71
2022/03/11 01:41:14;;;;;;;2.75;2.55;;;-0.20;80.80;;;;;;5096381;28;20257;-72
2022/03/11 01:43:54;;;;;;;2.40;2.30;;;-0.20;81.50;;;;;;5096112;28;20302;-71
2022/03/11 01:46:21;;;;;;;2.08;1.98;;;-0.20;80.50;;;;;;5096142;28;20230;-70
2022/03/11 01:48:48;;;;;;;2.47;2.28;;;-0.20;81.00;;;;;;5095806;28;20290;-70
2022/03/11 01:51:15;;;;;;;2.05;1.95;;;-0.20;81.20;;;;;;5095900;28;20397;-70
2022/03/11 01:53:42;;;;;;;2.22;2.13;;;-0.30;81.90;;;;;;5095979;28;20209;-71
2022/03/11 01:56:09;;;;;;;2.63;2.28;;;-0.30;82.40;;;;;;5096034;28;20286;-69
2022/03/11 01:58:36;;;;;;;2.20;2.10;;;-0.30;84.10;;;;;;5095691;28;20753;-69
2022/03/11 02:01:04;;;;;;;2.17;2.08;;;-0.30;84.30;;;;;;5095721;28;20206;-69
2022/03/11 02:03:32;;;;;;;2.47;2.38;;;-0.30;85.50;;;;;;5095995;28;20214;-69
2022/03/11 02:06:02;;;;;;;2.25;2.10;;;-0.40;86.60;;;;;;5095552;28;20535;-70
2022/03/11 02:08:29;;;;;;;2.25;2.15;;;-0.40;87.10;;;;;;5095990;28;20199;-70
2022/03/11 02:10:56;;;;;;;2.15;2.05;;;-0.40;88.70;;;;;;5095228;28;20733;-70
2022/03/11 02:13:23;;;;;;;2.35;2.25;;;-0.50;89.70;;;;;;5095511;28;20231;-70
2022/03/11 02:15:50;;;;;;;2.40;2.30;;;-0.50;90.70;;;;;;5095115;28;20753;-69
2022/03/11 02:18:18;;;;;;;2.50;2.30;;;-0.50;91.40;;;;;;5095157;28;20685;-70
2022/03/11 02:20:47;;;;;;;2.00;1.90;;;-0.50;91.20;;;;;;5095341;28;20286;-70
2022/03/11 02:23:15;;;;;;;2.17;2.08;;;-0.50;92.40;;;;;;5094911;28;20736;-70
2022/03/11 02:25:43;;;;;;;2.00;1.95;;;-0.50;92.70;;;;;;5095250;28;20233;-71
2022/03/11 02:28:10;;;;;;;2.53;2.33;;;-0.60;92.60;;;;;;5094925;28;20753;-71
2022/03/11 02:30:37;;;;;;;2.53;2.03;;;-0.60;93.30;;;;;;5095308;28;20229;-71
2022/03/11 02:33:03;;;;;;;2.13;2.03;;;-0.60;93.50;;;;;;5094987;28;20311;-70
2022/03/11 02:35:31;;;;;;;2.20;2.00;;;-0.60;94.10;;;;;;5094803;28;20640;-71
2022/03/11 02:37:57;;;;;;;1.95;1.85;;;-0.60;94.70;;;;;;5094753;28;20290;-71
2022/03/11 02:40:24;;;;;;;2.33;2.22;;;-0.60;95.60;;;;;;5094646;28;20293;-71
2022/03/11 02:42:53;;;;;;;1.83;1.83;;;-0.60;95.20;;;;;;5094843;28;20269;-71
2022/03/11 02:45:19;;;;;;;1.98;1.88;;;-0.60;95.60;;;;;;5093948;28;20302;-71
2022/03/11 02:47:46;;;;;;;1.80;1.80;;;-0.60;95.60;;;;;;5094700;28;20249;-70
2022/03/11 02:50:13;;;;;;;1.85;1.75;;;-0.60;95.40;;;;;;5094808;28;20281;-70
2022/03/11 02:52:40;;;;;;;2.35;2.15;;;-0.60;95.60;;;;;;5094783;28;20219;-70
2022/03/11 02:55:08;;;;;;;2.63;2.05;;;-0.70;95.50;;;;;;5094766;28;20291;-71
2022/03/11 02:57:34;;;;;;;1.80;1.70;;;-0.70;96.20;;;;;;5094716;28;20294;-70
2022/03/11 03:00:04;;;;;;;1.90;1.80;;;-0.70;96.40;;;;;;5094465;28;20222;-70
2022/03/11 03:02:31;;;;;;;1.88;1.80;;;-0.70;96.90;;;;;;5094007;28;20737;-68
2022/03/11 03:04:58;;;;;;;1.88;1.77;;;-0.70;97.60;;;;;;5094063;28;20782;-67
2022/03/11 03:07:25;;;;;;;1.92;1.83;;;-0.70;98.10;;;;;;5094153;28;20682;-67
2022/03/11 03:09:52;;;;;;;1.75;1.75;;;-0.80;98.90;;;;;;5094098;28;20286;-67
2022/03/11 03:12:19;;;;;;;1.58;1.48;;;-0.80;99.90;;;;;;5094571;28;20255;-68
2022/03/11 03:14:46;;;;;;;1.58;1.50;;;-0.80;99.90;;;;;;5094428;28;20234;-68
2022/03/11 03:17:14;;;;;;;1.40;1.40;;;-0.90;99.90;;;;;;5094441;28;20678;-68
2022/03/11 03:19:41;;;;;;;1.63;1.60;;;-0.90;99.90;;;;;;5094629;28;20248;-67
2022/03/11 03:22:07;;;;;;;1.88;1.77;;;-0.90;99.90;;;;;;5094609;28;20745;-67
2022/03/11 03:24:34;;;;;;;2.05;1.95;;;-0.90;99.90;;;;;;5093844;28;20318;-67
2022/03/11 03:27:02;;;;;;;1.90;1.80;;;-0.90;99.90;;;;;;5094119;28;20673;-67
2022/03/11 03:29:29;;;;;;;1.60;1.60;;;-0.90;99.90;;;;;;5093915;28;20199;-67
2022/03/11 03:31:57;;;;;;;1.95;1.85;;;-0.90;99.90;;;;;;5094037;28;20225;-67
2022/03/11 03:34:29;;;;;;;1.85;1.75;;;-0.90;99.90;;;;;;5094184;28;20207;-68
2022/03/11 03:36:56;;;;;;;1.70;1.70;;;-1.00;99.90;;;;;;5094339;28;20254;-68
2022/03/11 03:39:23;;;;;;;1.70;1.70;;;-1.00;99.90;;;;;;5093715;28;20684;-69
2022/03/11 03:41:50;;;;;;;1.52;1.52;;;-1.00;99.90;;;;;;5093970;28;20306;-67
2022/03/11 03:44:17;;;;;;;1.98;1.88;;;-1.00;99.90;;;;;;5093810;28;20235;-69
2022/03/11 03:46:44;;;;;;;1.70;1.60;;;-1.10;99.90;;;;;;5093551;28;20203;-68
2022/03/11 03:49:13;;;;;;;1.98;1.88;;;-1.10;99.90;;;;;;5094266;28;20210;-69
2022/03/11 03:51:41;;;;;;;1.77;1.67;;;-1.10;99.90;;;;;;5094622;28;20310;-69
2022/03/11 03:54:10;;;;;;;1.83;1.73;;;-1.10;99.90;;;;;;5094083;28;20201;-70
2022/03/11 03:56:37;;;;;;;1.80;1.70;;;-1.10;99.90;;;;;;5093427;28;20203;-69
2022/03/11 03:59:04;;;;;;;1.88;1.77;;;-1.20;99.90;;;;;;5093586;28;20602;-69
2022/03/11 04:01:33;;;;;;;1.63;1.63;;;-1.20;99.90;;;;;;5093600;28;20276;-69
2022/03/11 04:04:00;;;;;;;1.83;1.70;;;-1.20;99.90;;;;;;5093641;28;20293;-69
2022/03/11 04:06:27;;;;;;;1.65;1.65;;;-1.20;99.90;;;;;;5093586;28;20223;-69
2022/03/11 04:08:57;;;;;;;2.00;1.90;;;-1.20;99.90;;;;;;5093259;28;20315;-68
2022/03/11 04:11:23;;;;;;;1.83;1.73;;;-1.20;99.90;;;;;;5093504;28;20219;-69
2022/03/11 04:13:51;;;;;;;1.85;1.75;;;-1.20;99.90;;;;;;5093179;28;20693;-69
2022/03/11 04:16:19;;;;;;;1.88;1.77;;;-1.20;99.90;;;;;;5093574;28;20278;-70
2022/03/11 04:18:46;;;;;;;1.60;1.60;;;-1.30;99.90;;;;;;5093496;28;20199;-70
2022/03/11 04:21:13;;;;;;;1.45;1.45;;;-1.30;99.90;;;;;;5093213;28;20227;-69
2022/03/11 04:23:40;;;;;;;2.03;1.92;;;-1.30;99.90;;;;;;5093381;28;20180;-69
2022/03/11 04:26:09;;;;;;;1.52;1.52;;;-1.30;99.90;;;;;;5092873;28;20223;-69
2022/03/11 04:28:37;;;;;;;2.47;2.28;;;-1.30;99.90;;;;;;5093308;28;20200;-69
2022/03/11 04:31:04;;;;;;;2.22;1.90;;;-1.30;99.90;;;;;;5093099;28;20203;-69
2022/03/11 04:33:31;;;;;;;2.35;2.25;;;-1.40;99.90;;;;;;5093060;28;20290;-69
2022/03/11 04:35:58;;;;;;;2.30;2.20;;;-1.40;99.90;;;;;;5092802;28;20290;-69
2022/03/11 04:38:25;;;;;;;2.88;2.00;;;-1.40;99.90;;;;;;5093116;28;20195;-69
2022/03/11 04:40:52;;;;;;;2.22;2.03;;;-1.40;99.90;;;;;;5092677;28;20643;-69
2022/03/11 04:43:20;;;;;;;1.88;1.77;;;-1.40;99.90;;;;;;5092749;28;20231;-68
2022/03/11 04:45:47;;;;;;;2.13;2.00;;;-1.40;99.90;;;;;;5092924;28;20302;-68
2022/03/11 04:48:14;;;;;;;1.83;1.83;;;-1.50;99.90;;;;;;5092981;28;20195;-69
2022/03/11 04:50:41;;;;;;;1.75;1.75;;;-1.50;99.90;;;;;;5093111;28;20206;-69
2022/03/11 04:53:08;;;;;;;1.67;1.67;;;-1.50;99.90;;;;;;5092602;28;20584;-69
2022/03/11 04:55:36;;;;;;;2.05;1.95;;;-1.50;99.90;;;;;;5092598;28;20206;-68
2022/03/11 04:58:03;;;;;;;1.90;1.80;;;-1.50;99.90;;;;;;5092595;28;20724;-68
2022/03/11 05:00:31;;;;;;;2.47;2.10;;;-1.50;99.90;;;;;;5092519;28;20195;-68
2022/03/11 05:02:58;;;;;;;1.80;1.70;;;-1.60;99.90;;;;;;5092457;28;20584;-69
2022/03/11 05:05:26;;;;;;;2.03;1.92;;;-1.60;99.90;;;;;;5092730;28;20716;-69
2022/03/11 05:07:54;;;;;;;2.20;2.00;;;-1.60;99.90;;;;;;5092602;28;20689;-69
2022/03/11 05:10:21;;;;;;;2.58;2.47;;;-1.70;99.90;;;;;;5096543;28;20184;-68
2022/03/11 05:12:48;;;;;;;2.10;2.00;;;-1.70;99.90;;;;;;5096108;28;20262;-68
2022/03/11 05:15:15;;;;;;;2.30;2.20;;;-1.70;99.90;;;;;;5096155;28;20196;-68
2022/03/11 05:17:43;;;;;;;2.55;2.45;;;-1.70;99.90;;;;;;5096166;28;20195;-69
2022/03/11 05:20:11;;;;;;;2.30;2.20;;;-1.70;99.90;;;;;;5095717;28;20640;-69
2022/03/11 05:22:38;;;;;;;3.03;2.20;;;-1.70;99.90;;;;;;5096143;28;20249;-69
2022/03/11 05:25:06;;;;;;;3.10;2.75;;;-1.80;99.90;;;;;;5095841;28;20668;-69
2022/03/11 05:27:32;;;;;;;2.45;2.35;;;-1.80;99.90;;;;;;5096202;28;20625;-70
2022/03/11 05:29:59;;;;;;;2.83;2.63;;;-1.80;99.90;;;;;;5096113;28;20200;-68
2022/03/11 05:32:26;;;;;;;3.08;2.67;;;-1.70;99.90;;;;;;5095806;28;20230;-67
2022/03/11 05:34:54;;;;;;;2.85;2.65;;;-1.70;99.90;;;;;;5096046;28;20233;-67
2022/03/11 05:37:21;;;;;;;2.95;2.63;;;-1.70;99.90;;;;;;5096016;28;20240;-68
2022/03/11 05:39:48;;;;;;;3.83;3.28;;;-1.70;99.90;;;;;;5095933;28;20286;-68
2022/03/11 05:42:15;;;;;;;4.22;3.50;;;-1.70;99.90;;;;;;5095940;28;20584;-68
2022/03/11 05:44:42;;;;;;;4.18;3.55;;;-1.70;99.90;;;;;;5095502;28;20294;-68
2022/03/11 05:47:09;;;;;;;3.97;3.35;;;-1.70;99.90;;;;;;5095570;28;20666;-68
2022/03/11 05:49:36;;;;;;;3.53;3.22;;;-1.70;99.90;;;;;;5095814;28;20203;-68
2022/03/11 05:52:05;;;;;;;3.50;3.20;;;-1.70;99.90;;;;;;5095862;28;20226;-69
2022/03/11 05:54:32;;;;;;;3.90;3.60;;;-1.70;99.90;;;;;;5095790;28;20208;-69
2022/03/11 05:57:00;;;;;;;3.17;2.92;;;-1.70;99.90;;;;;;5095938;28;20221;-69
2022/03/11 05:59:29;;;;;;;3.47;3.15;;;-1.70;99.90;;;;;;5095454;28;20210;-69
2022/03/11 06:01:56;;;;;;;3.28;2.97;;;-1.60;99.90;;;;;;5095582;28;20215;-70
2022/03/11 06:04:23;;;;;;;3.03;2.83;;;-1.60;99.90;;;;;;5095327;28;20646;-70
2022/03/11 06:06:50;;;;;;;3.17;2.88;;;-1.60;99.90;;;;;;5095524;28;20223;-70
2022/03/11 06:09:18;;;;;;;3.38;3.17;;;-1.50;99.90;;;;;;5095368;28;20206;-70
2022/03/11 06:11:45;;;;;;;2.90;2.72;;;-1.40;99.90;;;;;;5094825;28;20313;-70
2022/03/11 06:14:12;;;;;;;2.85;2.65;;;-1.30;99.90;;;;;;5095182;28;20202;-71
2022/03/11 06:16:39;;;;;;;3.10;2.88;;;-1.20;99.90;;;;;;5095195;28;20199;-71
2022/03/11 06:19:06;;;;;;;3.33;3.03;;;-1.00;99.90;;;;;;5095382;28;20200;-72
2022/03/11 06:21:32;;;;;;;3.42;3.13;;;-0.60;99.90;;;;;;5097195;28;20737;-72
2022/03/11 06:23:59;;;;;;;3.70;3.40;;;-0.30;99.90;;;;;;5095989;28;20270;-73
2022/03/11 06:26:27;;;;;;;3.35;3.08;;;0.40;99.90;;;;;;5095592;28;20257;-72
2022/03/11 06:28:54;;;;;;;4.13;3.55;;;1.20;99.90;;;;;;5094909;28;20195;-73
2022/03/11 06:31:21;;;;;;;6.18;4.82;;;2.20;99.90;;;;;;5095145;28;20219;-73
2022/03/11 06:33:51;;;;;;;5.55;4.80;;;3.10;91.50;;;;;;5094945;28;20199;-73
2022/03/11 06:36:18;;;;;;;5.55;5.03;;;3.80;82.90;;;;;;5095189;28;20203;-73
2022/03/11 06:38:44;;;;;;;7.43;5.85;;;4.50;71.20;;;;;;5095050;28;20207;-73
2022/03/11 06:41:12;;;;;;;7.20;5.57;;;4.80;51.80;;;;;;5095235;28;20251;-73
2022/03/11 06:43:41;;;;;;;9.30;6.15;;;4.90;46.40;;;;;;5094836;28;20195;-73
2022/03/11 06:46:08;;;;;;;11.65;7.32;;;5.00;49.50;;;;;;5094420;28;20211;-72
2022/03/11 06:48:35;;;;;;;8.05;6.13;;;5.40;50.60;;;;;;5094881;28;20289;-72
2022/03/11 06:51:05;;;;;;;9.55;5.90;;;6.20;51.30;;;;;;5094720;28;20206;-72
2022/03/11 06:53:32;;;;;;;6.30;5.20;;;7.30;47.90;;;;;;5094800;28;20207;-72
2022/03/11 06:56:00;;;;;;;10.23;6.18;;;8.50;44.20;;;;;;5094676;28;20231;-72
2022/03/11 06:58:27;;;;;;;7.20;4.95;;;9.40;39.30;;;;;;5094691;28;20254;-72
2022/03/11 07:00:55;;;;;;;6.47;5.13;;;10.40;36.10;;;;;;5094199;28;20733;-72
2022/03/11 07:03:22;;;;;;;8.05;5.60;;;11.30;33.70;;;;;;5094575;28;20210;-72
2022/03/11 07:05:49;;;;;;;7.22;5.60;;;12.40;33.50;;;;;;5094485;28;20211;-72
2022/03/11 07:08:16;;;;;;;8.05;5.32;;;12.70;29.20;;;;;;5094481;28;20195;-72
2022/03/11 07:10:43;;;;;;;11.75;6.40;;;13.40;27.60;;;;;;5094396;28;20199;-72
2022/03/11 07:13:10;;;;;;;7.32;5.45;;;13.80;25.80;;;;;;5094051;28;20615;-72
2022/03/11 07:15:37;;;;;;;7.88;5.38;;;14.10;25.30;;;;;;5094020;28;20688;-72
2022/03/11 07:18:05;;;;;;;9.48;6.10;;;14.40;24.80;;;;;;5094253;28;20212;-72
2022/03/11 07:20:33;;;;;;;13.23;6.85;;;;;;;;;;5094290;28;20202;-72
2022/03/11 07:23:00;;;;;;;8.80;6.53;;;14.60;20.80;;;;;;5094194;28;20318;-73
2022/03/11 07:25:27;;;;;;;8.40;6.22;;;14.50;21.60;;;;;;5094921;28;20282;-72
2022/03/11 07:27:54;;;;;;;8.25;6.00;;;14.30;21.50;;;;;;5094862;28;20242;-71
2022/03/11 07:30:21;;;;;;;7.47;5.78;;;14.20;21.60;;;;;;5094882;28;20290;-71
2022/03/11 07:32:50;;;;;;;7.78;6.03;;;14.00;21.50;;;;;;5094711;28;20229;-72
2022/03/11 07:35:18;;;;;;;6.70;5.68;;;13.70;21.50;;;;;;5094332;28;20358;-72
2022/03/11 07:37:45;;;;;;;7.85;6.15;;;13.30;22.10;;;;;;5093899;28;20239;-72
2022/03/11 07:40:13;;;;;;;7.03;5.40;;;13.10;22.50;;;;;;5094214;28;20203;-72
2022/03/11 07:42:42;;;;;;;8.40;6.35;;;12.80;22.80;;;;;;5093906;28;20229;-72
2022/03/11 07:45:12;;;;;;;10.40;6.10;;;12.30;22.90;;;;;;5093981;28;20273;-73
2022/03/11 07:47:40;;;;;;;7.03;5.38;;;12.00;23.50;;;;;;5094144;28;20230;-73
2022/03/11 07:50:07;;;;;;;9.80;6.88;;;12.00;23.80;;;;;;5094012;28;20205;-73
2022/03/11 07:52:36;;;;;;;9.23;7.30;;;11.90;23.40;;;;;;5094636;28;20302;-72
2022/03/11 07:55:03;;;;;;;9.60;6.85;;;11.70;23.70;;;;;;5093558;28;20658;-72
2022/03/11 07:57:31;;;;;;;10.20;7.30;;;11.70;23.60;;;;;;5093710;28;20279;-71
2022/03/11 08:00:00;;;;;;;8.38;6.72;;;11.50;23.80;;;;;;5094201;28;20202;-72
2022/03/11 08:02:29;;;;;;;12.93;8.40;;;11.30;23.80;;;;;;5093371;28;20647;-71
2022/03/11 08:04:57;;;;;;;12.80;8.38;;;11.00;24.00;;;;;;5093724;28;20291;-72
2022/03/11 08:07:23;;;;;;;14.98;10.05;;;10.70;25.70;;;;;;5093303;28;20230;-71
2022/03/11 08:09:52;;;;;;;14.02;9.13;;;10.20;25.30;;;;;;5093530;28;20201;-72
2022/03/11 08:12:19;;;;;;;11.52;8.93;;;9.90;25.90;;;;;;5093383;28;20257;-72
2022/03/11 08:14:47;;;;;;;11.40;8.15;;;9.70;26.20;;;;;;5094474;28;20242;-72
2022/03/11 08:17:15;;;;;;;13.13;9.77;;;9.70;26.70;;;;;;5093238;28;20221;-71
2022/03/11 08:19:42;;;;;;;12.02;8.68;;;9.80;26.80;;;;;;5093556;28;20202;-71
2022/03/11 08:22:11;;;;;;;16.48;10.38;;;9.60;26.50;;;;;;5093512;28;20733;-70
2022/03/11 08:24:38;;;;;;;12.95;9.10;;;9.20;27.50;;;;;;5093274;28;20199;-70
2022/03/11 08:27:06;;;;;;;10.32;8.18;;;9.00;27.70;;;;;;5093363;28;20215;-71
2022/03/11 08:29:34;;;;;;;14.70;9.60;;;8.80;28.10;;;;;;5093485;28;20195;-69
2022/03/11 08:32:02;;;;;;;13.32;9.32;;;8.60;28.80;;;;;;5093645;28;20265;-71
2022/03/11 08:34:29;;;;;;;17.95;10.73;;;8.20;29.40;;;;;;5093377;28;20199;-72
2022/03/11 08:36:56;;;;;;;17.70;12.00;;;7.80;29.30;;;;;;5093061;28;20202;-72
2022/03/11 08:39:23;;;;;;;14.82;10.20;;;7.40;30.00;;;;;;5093314;28;20227;-72
2022/03/11 08:41:50;;;;;;;13.45;10.32;;;7.20;31.30;;;;;;5093849;28;20329;-72
2022/03/11 08:44:18;;;;;;;14.68;10.55;;;7.20;31.80;;;;;;5095697;28;20290;-71
2022/03/11 08:46:45;;;;;;;17.70;10.27;;;6.90;31.90;;;;;;5097468;28;20219;-71
2022/03/11 08:49:12;;;;;;;17.95;11.48;;;6.70;34.10;;;;;;5096821;28;20730;-71
2022/03/11 08:51:39;;;;;;;20.55;12.43;;;6.70;36.80;;;;;;5096906;28;20219;-72
2022/03/11 08:54:06;;;;;;;16.77;11.38;;;6.60;33.50;;;;;;5097028;28;20199;-71
2022/03/11 08:56:33;;;;;;;17.33;11.32;;;6.80;37.10;;;;;;5097117;28;20234;-72
2022/03/11 08:59:00;;;;;;;17.65;12.10;;;6.50;36.70;;;;;;5096622;28;20196;-72
2022/03/11 09:01:28;;;;;;;19.95;10.93;;;6.40;37.30;;;;;;5096917;28;20221;-71
2022/03/11 09:03:55;;;;;;;13.55;9.82;;;6.50;40.70;;;;;;5097055;28;20294;-72
2022/03/11 09:06:22;;;;;;;16.35;10.73;;;6.50;37.30;;;;;;5096568;28;20306;-70
2022/03/11 09:08:52;;;;;;;15.15;10.93;;;6.60;38.20;;;;;;5096924;28;20252;-73
2022/03/11 09:11:19;;;;;;;14.25;10.05;;;6.80;37.80;;;;;;5096831;28;20255;-73
2022/03/11 09:13:47;;;;;;;13.45;9.52;;;6.90;37.50;;;;;;5096765;28;20242;-71
2022/03/11 09:16:14;;;;;;;12.48;9.15;;;7.00;37.80;;;;;;5096689;28;20616;-71
2022/03/11 09:18:42;;;;;;;11.48;8.40;;;7.20;38.40;;;;;;5096240;28;20203;-72
2022/03/11 09:21:09;;;;;;;15.38;8.75;;;7.40;37.90;;;;;;5096454;28;20238;-72
2022/03/11 09:23:39;;;;;;;10.10;7.82;;;7.50;38.00;;;;;;5096575;28;20188;-72
2022/03/11 09:26:06;;;;;;;16.85;10.50;;;7.60;37.40;;;;;;5096499;28;20684;-72
2022/03/11 09:28:33;;;;;;;23.85;10.88;;;7.60;35.70;;;;;;5096418;28;20245;-72
2022/03/11 09:31:01;;;;;;;13.82;9.05;;;7.60;36.30;;;;;;5096064;28;20290;-72
2022/03/11 09:33:28;;;;;;;10.93;8.13;;;7.60;36.50;;;;;;5097080;28;20210;-72
2022/03/11 09:35:56;;;;;;;12.65;7.95;;;7.60;37.60;;;;;;5101544;28;20205;-71
2022/03/11 09:38:23;;;;;;;9.70;7.95;;;7.80;36.80;;;;;;5104156;28;20235;-71
2022/03/11 09:40:52;;;;;;;9.65;7.75;;;7.90;36.60;;;;;;5108724;28;20233;-72
2022/03/11 09:43:20;;;;;;;11.18;7.88;;;8.00;36.80;;;;;;5104779;28;20210;-72
2022/03/11 09:45:47;;;;;;;15.00;9.80;;;8.10;36.40;;;;;;5104827;22;20318;-67
2022/03/11 09:48:16;;;;;;;12.32;8.80;;;8.20;39.20;;;;;;5075676;28;20224;-67
2022/03/11 09:50:43;;;;;;;11.73;7.97;;;8.20;36.30;;;;;;5075182;28;20208;-67
2022/03/11 09:53:12;;;;;;;12.85;8.77;;;8.30;35.90;;;;;;5075672;28;20200;-67
2022/03/11 09:55:40;;;;;;;9.93;7.78;;;8.50;36.10;;;;;;5075399;28;20220;-67
2022/03/11 09:58:06;;;;;;;11.27;7.90;;;8.60;35.70;;;;;;5075658;28;20279;-67
2022/03/11 10:00:34;;;;;;;11.07;8.32;;;8.70;35.10;;;;;;5075586;28;20689;-67
2022/03/11 10:03:00;;;;;;;12.68;8.60;;;8.80;34.40;;;;;;5075468;28;20226;-67
2022/03/11 10:05:47;;;;;;;15.27;9.30;;;8.80;34.10;;;;;;5075355;28;20216;-67
2022/03/11 10:08:15;;;;;;;13.70;8.40;;;8.80;34.10;;;;;;5075357;28;20207;-68
2022/03/11 10:10:42;;;;;;;13.43;9.32;;;8.80;34.70;;;;;;5075273;28;20204;-67
2022/03/11 10:13:12;;;;;;;12.93;8.57;;;8.80;34.20;;;;;;5074996;28;20206;-67
2022/03/11 10:15:40;;;;;;;15.38;9.77;;;8.90;39.30;;;;;;5074965;28;20228;-68
2022/03/11 10:18:09;;;;;;;14.38;9.85;;;8.90;33.60;;;;;;5074797;28;20196;-68
2022/03/11 10:20:37;;;;;;;15.20;9.75;;;8.80;34.50;;;;;;5074731;28;20291;-68
2022/03/11 10:23:09;;;;;;;14.40;9.35;;;8.80;37.20;;;;;;5074516;28;20708;-68
2022/03/11 10:25:38;;;;;;;18.30;10.30;;;8.80;36.20;;;;;;5074640;28;20255;-67
2022/03/11 10:28:08;;;;;;;15.23;8.70;;;8.90;37.40;;;;;;5074085;28;20579;-67
2022/03/11 10:30:38;;;;;;;13.43;8.43;;;8.80;33.70;;;;;;5074090;28;20200;-67
2022/03/11 10:33:09;;;;;;;12.88;9.15;;;8.80;33.40;;;;;;5074335;28;20204;-67
2022/03/11 10:35:38;;;;;;;13.43;8.77;;;8.90;34.60;;;;;;5074304;28;20227;-67
2022/03/11 10:38:09;;;;;;;12.32;8.93;;;9.00;34.00;;;;;;5074356;28;20202;-67
2022/03/11 10:40:41;;;;;;;12.13;8.38;;;9.00;33.80;;;;;;5074349;28;20185;-67
2022/03/11 10:43:14;;;;;;;11.20;7.32;;;9.10;33.50;;;;;;5074298;28;20180;-67
2022/03/11 10:45:46;;;;;;;10.88;7.43;;;9.30;33.20;;;;;;5073644;28;20224;-67
2022/03/11 10:48:13;;;;;;;9.98;7.55;;;9.40;33.20;;;;;;5073836;28;20251;-67
2022/03/11 10:50:40;;;;;;;10.07;7.03;;;9.40;33.30;;;;;;5073810;28;20575;-67
2022/03/11 10:53:08;;;;;;;9.57;6.88;;;9.50;33.50;;;;;;5074325;28;20226;-67
2022/03/11 10:55:39;;;;;;;13.55;9.60;;;9.60;32.90;;;;;;5073579;28;20326;-67
2022/03/11 10:58:08;;;;;;;13.43;9.65;;;9.60;32.80;;;;;;5073757;28;20215;-67
2022/03/11 11:00:36;;;;;;;16.45;10.13;;;9.60;31.80;;;;;;5073890;28;20196;-67
2022/03/11 11:03:05;;;;;;;13.02;8.80;;;9.70;32.40;;;;;;5073935;28;20200;-67
2022/03/11 11:05:33;;;;;;;11.10;8.13;;;9.70;32.10;;;;;;5073761;28;20318;-67
2022/03/11 11:08:01;;;;;;;11.93;8.43;;;9.80;32.20;;;;;;5072734;28;20411;-67
2022/03/11 11:10:29;;;;;;;14.27;9.73;;;9.90;31.80;;;;;;5073878;28;20226;-67
2022/03/11 11:12:57;;;;;;;13.25;9.07;;;10.00;30.60;;;;;;5073726;28;20204;-67
2022/03/11 11:15:25;;;;;;;11.75;8.30;;;10.00;30.60;;;;;;5073417;28;20223;-67
2022/03/11 11:17:53;;;;;;;16.05;10.07;;;10.10;29.80;;;;;;5073884;28;20310;-67
2022/03/11 11:20:22;;;;;;;16.95;10.82;;;10.30;29.60;;;;;;5073791;28;20208;-68
2022/03/11 11:22:50;;;;;;;17.58;10.93;;;10.30;29.30;;;;;;5073911;28;20204;-67
2022/03/11 11:25:20;;;;;;;15.48;9.23;;;10.30;28.90;;;;;;5073613;28;20304;-68
2022/03/11 11:27:47;;;;;;;16.70;9.95;;;10.30;29.00;;;;;;5073593;28;20223;-68
2022/03/11 11:30:19;;;;;;;14.45;9.43;;;10.40;29.40;;;;;;5073831;28;20259;-68
2022/03/11 11:32:48;;;;;;;11.75;8.57;;;10.40;28.80;;;;;;5073719;28;20191;-68
2022/03/11 11:35:27;;;;;;;12.38;7.70;;;10.40;28.60;;;;;;5073256;28;20223;-69
2022/03/11 11:37:55;;;;;;;11.60;7.65;;;10.40;29.10;;;;;;5073233;28;20654;-68
2022/03/11 11:40:23;;;;;;;12.73;8.15;;;10.50;29.20;;;;;;5073334;28;20204;-68
2022/03/11 11:43:27;;;;;;;10.88;7.45;;;10.60;29.70;;;;;;5072811;28;20601;-67
2022/03/11 11:46:04;;;;;;;8.55;6.53;;;10.70;29.20;;;;;;5070301;28;20790;-67
2022/03/11 11:49:04;;;;;;;8.82;6.47;;;10.80;28.50;;;;;;5073000;28;20215;-67
2022/03/11 11:51:57;;;;;;;9.48;6.53;;;10.80;28.40;;;;;;5073249;28;20242;-67
2022/03/11 11:54:39;;;;;;;11.65;7.63;;;10.80;28.00;;;;;;5073019;28;20304;-68
2022/03/11 11:57:07;;;;;;;14.63;8.65;;;10.90;27.70;;;;;;5073049;28;20199;-68
2022/03/11 11:59:37;;;;;;;12.10;7.97;;;10.90;27.50;;;;;;5072678;28;20556;-68
2022/03/11 12:02:24;;;;;;;14.80;9.18;;;11.00;27.60;;;;;;5073257;28;20637;-68
2022/03/11 12:04:52;;;;;;;15.63;9.85;;;11.10;26.30;;;;;;5072964;28;20224;-65
2022/03/11 12:07:20;;;;;;;15.25;9.45;;;11.20;26.80;;;;;;5072359;28;20212;-64
2022/03/11 12:09:58;;;;;;;15.80;9.60;;;11.30;26.00;;;;;;5072718;28;20200;-66
2022/03/11 12:13:00;;;;;;;14.45;9.38;;;11.40;25.90;;;;;;5072544;28;20179;-65
2022/03/11 12:15:27;;;;;;;16.88;10.45;;;11.60;25.60;;;;;;5030605;28;20297;-66
2022/03/11 12:17:59;;;;;;;22.13;11.82;;;11.60;25.40;;;;;;5065451;28;20689;-66
2022/03/11 12:20:33;;;;;;;18.05;10.90;;;11.50;25.30;;;;;;5076620;28;20559;-66
2022/03/11 12:23:01;;;;;;;14.93;9.38;;;11.60;25.80;;;;;;5077128;28;20195;-69
2022/03/11 12:25:29;;;;;;;13.38;8.68;;;11.70;25.60;;;;;;5077092;28;20624;-67
2022/03/11 12:27:59;;;;;;;11.85;7.70;;;11.80;25.70;;;;;;5076764;28;20585;-67
2022/03/11 12:30:26;;;;;;;10.10;7.10;;;11.80;25.60;;;;;;5076713;28;20646;-68
2022/03/11 12:32:53;;;;;;;12.68;8.00;;;11.80;25.60;;;;;;5076989;28;20200;-69
2022/03/11 12:35:22;;;;;;;10.15;7.93;;;11.90;24.80;;;;;;5080919;28;20230;-67
2022/03/11 12:37:51;;;;;;;13.48;7.60;;;11.90;24.80;;;;;;5081299;28;20223;-70
2022/03/11 12:40:20;;;;;;;9.63;6.97;;;11.90;24.20;;;;;;5080951;28;20200;-69
2022/03/11 12:42:48;;;;;;;14.57;9.60;;;12.00;24.40;;;;;;5081603;28;20204;-70
2022/03/11 12:45:31;;;;;;;14.35;8.38;;;12.00;23.20;;;;;;5080835;28;20228;-69
2022/03/11 12:47:58;;;;;;;11.70;7.20;;;12.00;23.30;;;;;;5081884;28;20208;-69
2022/03/11 12:50:26;;;;;;;12.45;8.80;;;12.10;22.80;;;;;;5080893;28;20238;-69